sensor_id;sensor_type;location;lat;lon;timestamp;P1;P2;P0
61804;PMS7003;47725;47.912;7.356;2023-05-10T00:01:56;0.00;0.00;
61804;PMS7003;47725;47.912;7.356;2023-05-10T00:05:56;0.00;0.00;
61804;PMS7003;47725;47.912;7.356;2023-05-10T00:09:56;0.00;0.00;
61804;PMS7003;47725;47.912;7.356;2023-05-10T00:13:56;0.00;0.00;
61804;PMS7003;47725;47.912;7.356;2023-05-10T00:17:56;0.00;0.00;
61804;PMS7003;47725;47.912;7.356;2023-05-10T00:21:56;0.00;0.00;
61804;PMS7003;47725;47.912;7.356;2023-05-10T00:25:56;0.00;0.00;
61804;PMS7003;47725;47.912;7.356;2023-05-10T00:29:56;0.00;0.00;
61804;PMS7003;47725;47.912;7.356;2023-05-10T00:33:56;0.00;0.00;
61804;PMS7003;47725;47.912;7.356;2023-05-10T00:37:56;0.00;0.00;
61804;PMS7003;47725;47.912;7.356;2023-05-10T00:41:56;0.00;0.00;
61804;PMS7003;47725;47.912;7.356;2023-05-10T00:45:56;0.00;0.00;
61804;PMS7003;47725;47.912;7.356;2023-05-10T00:49:56;0.00;0.00;
61804;PMS7003;47725;47.912;7.356;2023-05-10T00:53:56;0.00;0.00;
61804;PMS7003;47725;47.912;7.356;2023-05-10T00:57:56;0.00;0.00;
61804;PMS7003;47725;47.912;7.356;2023-05-10T01:01:56;0.00;0.00;
61804;PMS7003;47725;47.912;7.356;2023-05-10T01:05:56;0.00;0.00;
61804;PMS7003;47725;47.912;7.356;2023-05-10T01:09:56;0.00;0.00;
61804;PMS7003;47725;47.912;7.356;2023-05-10T01:13:56;0.00;0.00;
61804;PMS7003;47725;47.912;7.356;2023-05-10T01:17:56;0.00;0.00;
61804;PMS7003;47725;47.912;7.356;2023-05-10T01:22:07;0.00;0.00;
61804;PMS7003;47725;47.912;7.356;2023-05-10T01:26:14;0.00;0.00;
61804;PMS7003;47725;47.912;7.356;2023-05-10T01:34:01;0.81;0.00;
61804;PMS7003;47725;47.912;7.356;2023-05-10T01:38:00;0.81;0.00;
61804;PMS7003;47725;47.912;7.356;2023-05-10T01:46:00;0.00;0.00;
61804;PMS7003;47725;47.912;7.356;2023-05-10T01:49:56;0.00;0.00;
61804;PMS7003;47725;47.912;7.356;2023-05-10T01:54:00;0.00;0.00;
61804;PMS7003;47725;47.912;7.356;2023-05-10T01:57:59;0.00;0.00;
61804;PMS7003;47725;47.912;7.356;2023-05-10T02:01:57;0.00;0.00;
61804;PMS7003;47725;47.912;7.356;2023-05-10T02:05:56;0.00;0.00;
61804;PMS7003;47725;47.912;7.356;2023-05-10T02:09:56;0.00;0.00;
61804;PMS7003;47725;47.912;7.356;2023-05-10T02:13:56;0.80;0.00;
61804;PMS7003;47725;47.912;7.356;2023-05-10T02:17:56;0.80;0.00;
61804;PMS7003;47725;47.912;7.356;2023-05-10T02:21:56;0.00;0.00;
61804;PMS7003;47725;47.912;7.356;2023-05-10T02:25:56;0.00;0.00;
61804;PMS7003;47725;47.912;7.356;2023-05-10T02:29:56;0.00;0.00;
61804;PMS7003;47725;47.912;7.356;2023-05-10T02:33:56;0.00;0.00;
61804;PMS7003;47725;47.912;7.356;2023-05-10T02:37:56;0.00;0.00;
61804;PMS7003;47725;47.912;7.356;2023-05-10T02:41:56;0.00;0.00;
61804;PMS7003;47725;47.912;7.356;2023-05-10T02:45:56;0.00;0.00;
61804;PMS7003;47725;47.912;7.356;2023-05-10T02:49:56;0.00;0.00;
61804;PMS7003;47725;47.912;7.356;2023-05-10T02:53:56;0.00;0.00;
61804;PMS7003;47725;47.912;7.356;2023-05-10T02:58:00;0.00;0.00;
61804;PMS7003;47725;47.912;7.356;2023-05-10T03:01:56;0.80;0.00;
61804;PMS7003;47725;47.912;7.356;2023-05-10T03:05:56;0.80;0.00;
61804;PMS7003;47725;47.912;7.356;2023-05-10T03:09:56;0.80;0.00;
61804;PMS7003;47725;47.912;7.356;2023-05-10T03:14:00;0.00;0.00;
61804;PMS7003;47725;47.912;7.356;2023-05-10T03:21:57;0.00;0.00;
61804;PMS7003;47725;47.912;7.356;2023-05-10T03:25:56;0.00;0.00;
61804;PMS7003;47725;47.912;7.356;2023-05-10T03:29:56;0.00;0.00;
61804;PMS7003;47725;47.912;7.356;2023-05-10T03:33:56;0.00;0.00;
61804;PMS7003;47725;47.912;7.356;2023-05-10T03:37:56;0.00;0.00;
61804;PMS7003;47725;47.912;7.356;2023-05-10T03:41:56;0.00;0.00;
61804;PMS7003;47725;47.912;7.356;2023-05-10T03:45:56;0.00;0.00;
61804;PMS7003;47725;47.912;7.356;2023-05-10T03:49:56;0.00;0.00;
61804;PMS7003;47725;47.912;7.356;2023-05-10T03:53:56;0.00;0.00;
61804;PMS7003;47725;47.912;7.356;2023-05-10T03:57:56;0.00;0.00;
61804;PMS7003;47725;47.912;7.356;2023-05-10T04:01:56;0.00;0.00;
61804;PMS7003;47725;47.912;7.356;2023-05-10T04:06:02;0.00;0.00;
61804;PMS7003;47725;47.912;7.356;2023-05-10T04:09:56;0.00;0.00;
61804;PMS7003;47725;47.912;7.356;2023-05-10T04:13:56;0.00;0.00;
61804;PMS7003;47725;47.912;7.356;2023-05-10T04:17:56;0.00;0.00;
61804;PMS7003;47725;47.912;7.356;2023-05-10T04:21:56;0.00;0.00;
61804;PMS7003;47725;47.912;7.356;2023-05-10T04:25:59;0.00;0.00;
61804;PMS7003;47725;47.912;7.356;2023-05-10T04:29:56;0.00;0.00;
61804;PMS7003;47725;47.912;7.356;2023-05-10T04:33:56;0.79;0.79;
61804;PMS7003;47725;47.912;7.356;2023-05-10T04:37:56;0.79;0.79;
61804;PMS7003;47725;47.912;7.356;2023-05-10T04:41:56;0.00;0.00;
61804;PMS7003;47725;47.912;7.356;2023-05-10T04:45:56;0.00;0.00;
61804;PMS7003;47725;47.912;7.356;2023-05-10T04:49:56;0.00;0.00;
61804;PMS7003;47725;47.912;7.356;2023-05-10T04:53:56;1.55;0.78;
61804;PMS7003;47725;47.912;7.356;2023-05-10T04:57:56;1.55;0.78;
61804;PMS7003;47725;47.912;7.356;2023-05-10T05:01:56;0.00;0.00;
61804;PMS7003;47725;47.912;7.356;2023-05-10T05:05:56;0.00;0.00;
61804;PMS7003;47725;47.912;7.356;2023-05-10T05:09:56;0.00;0.00;
61804;PMS7003;47725;47.912;7.356;2023-05-10T05:13:56;1.52;0.76;
61804;PMS7003;47725;47.912;7.356;2023-05-10T05:17:56;1.52;0.76;
61804;PMS7003;47725;47.912;7.356;2023-05-10T05:21:56;2.28;0.76;
61804;PMS7003;47725;47.912;7.356;2023-05-10T05:25:56;2.28;0.76;
61804;PMS7003;47725;47.912;7.356;2023-05-10T05:29:56;2.28;0.76;
61804;PMS7003;47725;47.912;7.356;2023-05-10T05:33:56;0.00;0.00;
61804;PMS7003;47725;47.912;7.356;2023-05-10T05:37:56;0.00;0.00;
61804;PMS7003;47725;47.912;7.356;2023-05-10T05:41:56;2.29;0.76;
61804;PMS7003;47725;47.912;7.356;2023-05-10T05:45:56;2.29;0.76;
61804;PMS7003;47725;47.912;7.356;2023-05-10T05:49:56;2.29;0.76;
61804;PMS7003;47725;47.912;7.356;2023-05-10T05:53:56;0.00;0.00;
61804;PMS7003;47725;47.912;7.356;2023-05-10T05:57:56;0.00;0.00;
61804;PMS7003;47725;47.912;7.356;2023-05-10T06:01:56;0.00;0.00;
61804;PMS7003;47725;47.912;7.356;2023-05-10T06:05:56;0.00;0.00;
61804;PMS7003;47725;47.912;7.356;2023-05-10T06:09:56;0.00;0.00;
61804;PMS7003;47725;47.912;7.356;2023-05-10T06:13:56;0.79;0.00;
61804;PMS7003;47725;47.912;7.356;2023-05-10T06:17:56;0.79;0.00;
61804;PMS7003;47725;47.912;7.356;2023-05-10T06:21:56;0.00;0.00;
61804;PMS7003;47725;47.912;7.356;2023-05-10T06:25:56;0.00;0.00;
61804;PMS7003;47725;47.912;7.356;2023-05-10T06:29:56;0.00;0.00;
61804;PMS7003;47725;47.912;7.356;2023-05-10T06:33:56;3.30;0.83;
61804;PMS7003;47725;47.912;7.356;2023-05-10T06:37:56;3.30;0.83;
61804;PMS7003;47725;47.912;7.356;2023-05-10T06:41:56;0.00;0.00;
61804;PMS7003;47725;47.912;7.356;2023-05-10T06:45:56;0.00;0.00;
61804;PMS7003;47725;47.912;7.356;2023-05-10T06:49:56;0.00;0.00;
61804;PMS7003;47725;47.912;7.356;2023-05-10T06:53:56;0.00;0.00;
61804;PMS7003;47725;47.912;7.356;2023-05-10T06:57:56;0.00;0.00;
61804;PMS7003;47725;47.912;7.356;2023-05-10T07:01:56;0.00;0.00;
61804;PMS7003;47725;47.912;7.356;2023-05-10T07:06:02;0.00;0.00;
61804;PMS7003;47725;47.912;7.356;2023-05-10T07:09:56;0.00;0.00;
61804;PMS7003;47725;47.912;7.356;2023-05-10T07:13:56;0.00;0.00;
61804;PMS7003;47725;47.912;7.356;2023-05-10T07:17:56;0.00;0.00;
61804;PMS7003;47725;47.912;7.356;2023-05-10T07:21:56;0.00;0.00;
61804;PMS7003;47725;47.912;7.356;2023-05-10T07:25:56;0.00;0.00;
61804;PMS7003;47725;47.912;7.356;2023-05-10T07:29:56;0.00;0.00;
61804;PMS7003;47725;47.912;7.356;2023-05-10T07:33:56;0.00;0.00;
61804;PMS7003;47725;47.912;7.356;2023-05-10T07:37:56;0.00;0.00;
61804;PMS7003;47725;47.912;7.356;2023-05-10T07:41:56;0.00;0.00;
61804;PMS7003;47725;47.912;7.356;2023-05-10T07:45:56;0.00;0.00;
61804;PMS7003;47725;47.912;7.356;2023-05-10T07:49:56;0.00;0.00;
61804;PMS7003;47725;47.912;7.356;2023-05-10T07:53:56;0.00;0.00;
61804;PMS7003;47725;47.912;7.356;2023-05-10T07:57:56;0.00;0.00;
61804;PMS7003;47725;47.912;7.356;2023-05-10T08:01:56;0.00;0.00;
61804;PMS7003;47725;47.912;7.356;2023-05-10T08:05:56;0.00;0.00;
61804;PMS7003;47725;47.912;7.356;2023-05-10T08:09:56;0.00;0.00;
61804;PMS7003;47725;47.912;7.356;2023-05-10T08:13:56;0.95;0.00;
61804;PMS7003;47725;47.912;7.356;2023-05-10T08:17:56;0.95;0.00;
61804;PMS7003;47725;47.912;7.356;2023-05-10T08:21:56;0.00;0.00;
61804;PMS7003;47725;47.912;7.356;2023-05-10T08:25:56;0.00;0.00;
61804;PMS7003;47725;47.912;7.356;2023-05-10T08:29:56;0.00;0.00;
61804;PMS7003;47725;47.912;7.356;2023-05-10T08:33:56;0.00;0.00;
61804;PMS7003;47725;47.912;7.356;2023-05-10T08:37:56;0.00;0.00;
61804;PMS7003;47725;47.912;7.356;2023-05-10T08:41:58;0.00;0.00;
61804;PMS7003;47725;47.912;7.356;2023-05-10T08:45:56;0.00;0.00;
61804;PMS7003;47725;47.912;7.356;2023-05-10T08:49:56;0.00;0.00;
61804;PMS7003;47725;47.912;7.356;2023-05-10T08:53:56;0.00;0.00;
61804;PMS7003;47725;47.912;7.356;2023-05-10T08:57:56;0.00;0.00;
61804;PMS7003;47725;47.912;7.356;2023-05-10T09:01:57;0.00;0.00;
61804;PMS7003;47725;47.912;7.356;2023-05-10T09:05:56;0.00;0.00;
61804;PMS7003;47725;47.912;7.356;2023-05-10T09:09:56;0.00;0.00;
61804;PMS7003;47725;47.912;7.356;2023-05-10T09:13:56;0.00;0.00;
61804;PMS7003;47725;47.912;7.356;2023-05-10T09:17:56;0.00;0.00;
61804;PMS7003;47725;47.912;7.356;2023-05-10T09:21:56;0.00;0.00;
61804;PMS7003;47725;47.912;7.356;2023-05-10T09:26:05;0.00;0.00;
61804;PMS7003;47725;47.912;7.356;2023-05-10T09:29:56;0.00;0.00;
61804;PMS7003;47725;47.912;7.356;2023-05-10T09:33:56;0.00;0.00;
61804;PMS7003;47725;47.912;7.356;2023-05-10T09:38:01;0.00;0.00;
61804;PMS7003;47725;47.912;7.356;2023-05-10T09:41:56;0.00;0.00;
61804;PMS7003;47725;47.912;7.356;2023-05-10T09:45:56;0.00;0.00;
61804;PMS7003;47725;47.912;7.356;2023-05-10T09:49:56;0.00;0.00;
61804;PMS7003;47725;47.912;7.356;2023-05-10T09:54:14;0.00;0.00;
61804;PMS7003;47725;47.912;7.356;2023-05-10T09:57:59;0.00;0.00;
61804;PMS7003;47725;47.912;7.356;2023-05-10T10:01:56;0.00;0.00;
61804;PMS7003;47725;47.912;7.356;2023-05-10T10:05:56;0.00;0.00;
61804;PMS7003;47725;47.912;7.356;2023-05-10T10:09:56;0.00;0.00;
61804;PMS7003;47725;47.912;7.356;2023-05-10T10:13:56;0.00;0.00;
61804;PMS7003;47725;47.912;7.356;2023-05-10T10:17:56;0.00;0.00;
61804;PMS7003;47725;47.912;7.356;2023-05-10T10:21:56;0.00;0.00;
61804;PMS7003;47725;47.912;7.356;2023-05-10T10:25:56;0.00;0.00;
61804;PMS7003;47725;47.912;7.356;2023-05-10T10:34:11;0.00;0.00;
61804;PMS7003;47725;47.912;7.356;2023-05-10T10:37:56;0.00;0.00;
61804;PMS7003;47725;47.912;7.356;2023-05-10T10:41:56;0.00;0.00;
61804;PMS7003;47725;47.912;7.356;2023-05-10T10:46:16;0.00;0.00;
61804;PMS7003;47725;47.912;7.356;2023-05-10T10:50:02;0.00;0.00;
61804;PMS7003;47725;47.912;7.356;2023-05-10T10:53:56;0.00;0.00;
61804;PMS7003;47725;47.912;7.356;2023-05-10T10:57:56;0.00;0.00;
61804;PMS7003;47725;47.912;7.356;2023-05-10T11:01:56;0.00;0.00;
61804;PMS7003;47725;47.912;7.356;2023-05-10T11:05:57;0.00;0.00;
61804;PMS7003;47725;47.912;7.356;2023-05-10T11:09:56;0.00;0.00;
61804;PMS7003;47725;47.912;7.356;2023-05-10T11:13:56;0.00;0.00;
61804;PMS7003;47725;47.912;7.356;2023-05-10T11:17:56;0.00;0.00;
61804;PMS7003;47725;47.912;7.356;2023-05-10T11:25:56;0.00;0.00;
61804;PMS7003;47725;47.912;7.356;2023-05-10T11:29:56;0.00;0.00;
61804;PMS7003;47725;47.912;7.356;2023-05-10T11:33:56;0.00;0.00;
61804;PMS7003;47725;47.912;7.356;2023-05-10T11:37:55;0.00;0.00;
61804;PMS7003;47725;47.912;7.356;2023-05-10T11:41:56;0.00;0.00;
61804;PMS7003;47725;47.912;7.356;2023-05-10T11:45:55;0.00;0.00;
61804;PMS7003;47725;47.912;7.356;2023-05-10T11:49:55;0.00;0.00;
61804;PMS7003;47725;47.912;7.356;2023-05-10T11:53:56;0.00;0.00;
61804;PMS7003;47725;47.912;7.356;2023-05-10T11:57:59;0.00;0.00;
61804;PMS7003;47725;47.912;7.356;2023-05-10T12:01:55;0.00;0.00;
61804;PMS7003;47725;47.912;7.356;2023-05-10T12:05:56;0.00;0.00;
61804;PMS7003;47725;47.912;7.356;2023-05-10T12:10:05;0.00;0.00;
61804;PMS7003;47725;47.912;7.356;2023-05-10T12:13:55;0.00;0.00;
61804;PMS7003;47725;47.912;7.356;2023-05-10T12:17:56;0.00;0.00;
61804;PMS7003;47725;47.912;7.356;2023-05-10T12:21:55;0.00;0.00;
61804;PMS7003;47725;47.912;7.356;2023-05-10T12:26:01;0.00;0.00;
61804;PMS7003;47725;47.912;7.356;2023-05-10T12:29:58;0.00;0.00;
61804;PMS7003;47725;47.912;7.356;2023-05-10T12:33:55;0.00;0.00;
61804;PMS7003;47725;47.912;7.356;2023-05-10T12:37:55;0.00;0.00;
61804;PMS7003;47725;47.912;7.356;2023-05-10T12:41:55;0.00;0.00;
61804;PMS7003;47725;47.912;7.356;2023-05-10T12:45:55;0.00;0.00;
61804;PMS7003;47725;47.912;7.356;2023-05-10T12:49:55;0.00;0.00;
61804;PMS7003;47725;47.912;7.356;2023-05-10T12:53:55;0.00;0.00;
61804;PMS7003;47725;47.912;7.356;2023-05-10T12:57:55;0.00;0.00;
61804;PMS7003;47725;47.912;7.356;2023-05-10T13:01:57;0.00;0.00;
61804;PMS7003;47725;47.912;7.356;2023-05-10T13:05:55;0.00;0.00;
61804;PMS7003;47725;47.912;7.356;2023-05-10T13:09:55;0.00;0.00;
61804;PMS7003;47725;47.912;7.356;2023-05-10T13:13:55;0.00;0.00;
61804;PMS7003;47725;47.912;7.356;2023-05-10T13:17:55;0.00;0.00;
61804;PMS7003;47725;47.912;7.356;2023-05-10T13:21:55;0.00;0.00;
61804;PMS7003;47725;47.912;7.356;2023-05-10T13:25:55;0.00;0.00;
61804;PMS7003;47725;47.912;7.356;2023-05-10T13:29:55;0.00;0.00;
61804;PMS7003;47725;47.912;7.356;2023-05-10T13:33:55;0.00;0.00;
61804;PMS7003;47725;47.912;7.356;2023-05-10T13:37:55;0.00;0.00;
61804;PMS7003;47725;47.912;7.356;2023-05-10T13:41:55;0.00;0.00;
61804;PMS7003;47725;47.912;7.356;2023-05-10T13:45:55;0.00;0.00;
61804;PMS7003;47725;47.912;7.356;2023-05-10T13:49:55;0.00;0.00;
61804;PMS7003;47725;47.912;7.356;2023-05-10T13:53:55;0.00;0.00;
61804;PMS7003;47725;47.912;7.356;2023-05-10T13:57:55;0.00;0.00;
61804;PMS7003;47725;47.912;7.356;2023-05-10T14:01:55;0.00;0.00;
61804;PMS7003;47725;47.912;7.356;2023-05-10T14:05:55;0.00;0.00;
61804;PMS7003;47725;47.912;7.356;2023-05-10T14:09:55;0.00;0.00;
61804;PMS7003;47725;47.912;7.356;2023-05-10T14:13:55;0.00;0.00;
61804;PMS7003;47725;47.912;7.356;2023-05-10T14:17:55;0.00;0.00;
61804;PMS7003;47725;47.912;7.356;2023-05-10T14:21:55;0.00;0.00;
61804;PMS7003;47725;47.912;7.356;2023-05-10T14:25:55;0.00;0.00;
61804;PMS7003;47725;47.912;7.356;2023-05-10T14:29:55;0.00;0.00;
61804;PMS7003;47725;47.912;7.356;2023-05-10T14:33:55;0.00;0.00;
61804;PMS7003;47725;47.912;7.356;2023-05-10T14:37:55;0.00;0.00;
61804;PMS7003;47725;47.912;7.356;2023-05-10T14:41:55;0.00;0.00;
61804;PMS7003;47725;47.912;7.356;2023-05-10T14:45:55;0.00;0.00;
61804;PMS7003;47725;47.912;7.356;2023-05-10T14:49:55;0.00;0.00;
61804;PMS7003;47725;47.912;7.356;2023-05-10T14:53:55;0.00;0.00;
61804;PMS7003;47725;47.912;7.356;2023-05-10T14:57:55;0.00;0.00;
61804;PMS7003;47725;47.912;7.356;2023-05-10T15:01:55;0.00;0.00;
61804;PMS7003;47725;47.912;7.356;2023-05-10T15:05:55;0.00;0.00;
61804;PMS7003;47725;47.912;7.356;2023-05-10T15:09:55;0.00;0.00;
61804;PMS7003;47725;47.912;7.356;2023-05-10T15:13:55;0.00;0.00;
61804;PMS7003;47725;47.912;7.356;2023-05-10T15:17:55;0.00;0.00;
61804;PMS7003;47725;47.912;7.356;2023-05-10T15:21:55;0.00;0.00;
61804;PMS7003;47725;47.912;7.356;2023-05-10T15:25:55;0.00;0.00;
61804;PMS7003;47725;47.912;7.356;2023-05-10T15:29:55;0.00;0.00;
61804;PMS7003;47725;47.912;7.356;2023-05-10T15:33:56;0.00;0.00;
61804;PMS7003;47725;47.912;7.356;2023-05-10T15:37:55;0.00;0.00;
61804;PMS7003;47725;47.912;7.356;2023-05-10T15:41:55;0.00;0.00;
61804;PMS7003;47725;47.912;7.356;2023-05-10T15:45:55;0.00;0.00;
61804;PMS7003;47725;47.912;7.356;2023-05-10T15:49:55;0.00;0.00;
61804;PMS7003;47725;47.912;7.356;2023-05-10T15:53:55;0.00;0.00;
61804;PMS7003;47725;47.912;7.356;2023-05-10T15:57:55;0.00;0.00;
61804;PMS7003;47725;47.912;7.356;2023-05-10T16:01:55;0.00;0.00;
61804;PMS7003;47725;47.912;7.356;2023-05-10T16:05:55;0.00;0.00;
61804;PMS7003;47725;47.912;7.356;2023-05-10T16:09:55;0.00;0.00;
61804;PMS7003;47725;47.912;7.356;2023-05-10T16:13:55;0.00;0.00;
61804;PMS7003;47725;47.912;7.356;2023-05-10T16:17:55;0.00;0.00;
61804;PMS7003;47725;47.912;7.356;2023-05-10T16:21:55;0.00;0.00;
61804;PMS7003;47725;47.912;7.356;2023-05-10T16:25:55;0.00;0.00;
61804;PMS7003;47725;47.912;7.356;2023-05-10T16:29:55;0.00;0.00;
61804;PMS7003;47725;47.912;7.356;2023-05-10T16:33:55;0.00;0.00;
61804;PMS7003;47725;47.912;7.356;2023-05-10T16:37:55;0.00;0.00;
61804;PMS7003;47725;47.912;7.356;2023-05-10T16:41:55;0.00;0.00;
61804;PMS7003;47725;47.912;7.356;2023-05-10T16:45:55;0.00;0.00;
61804;PMS7003;47725;47.912;7.356;2023-05-10T16:49:55;0.00;0.00;
61804;PMS7003;47725;47.912;7.356;2023-05-10T16:53:55;0.00;0.00;
61804;PMS7003;47725;47.912;7.356;2023-05-10T16:57:55;0.00;0.00;
61804;PMS7003;47725;47.912;7.356;2023-05-10T17:01:55;0.00;0.00;
61804;PMS7003;47725;47.912;7.356;2023-05-10T17:05:55;0.00;0.00;
61804;PMS7003;47725;47.912;7.356;2023-05-10T17:09:55;0.00;0.00;
61804;PMS7003;47725;47.912;7.356;2023-05-10T17:13:55;0.00;0.00;
61804;PMS7003;47725;47.912;7.356;2023-05-10T17:17:55;0.00;0.00;
61804;PMS7003;47725;47.912;7.356;2023-05-10T17:21:55;0.00;0.00;
61804;PMS7003;47725;47.912;7.356;2023-05-10T17:25:55;0.00;0.00;
61804;PMS7003;47725;47.912;7.356;2023-05-10T17:29:55;0.00;0.00;
61804;PMS7003;47725;47.912;7.356;2023-05-10T17:33:55;0.00;0.00;
61804;PMS7003;47725;47.912;7.356;2023-05-10T17:37:55;0.00;0.00;
61804;PMS7003;47725;47.912;7.356;2023-05-10T17:41:55;0.00;0.00;
61804;PMS7003;47725;47.912;7.356;2023-05-10T17:45:55;0.00;0.00;
61804;PMS7003;47725;47.912;7.356;2023-05-10T17:49:55;0.00;0.00;
61804;PMS7003;47725;47.912;7.356;2023-05-10T17:53:55;0.00;0.00;
61804;PMS7003;47725;47.912;7.356;2023-05-10T17:57:55;0.00;0.00;
61804;PMS7003;47725;47.912;7.356;2023-05-10T18:01:55;0.00;0.00;
61804;PMS7003;47725;47.912;7.356;2023-05-10T18:05:55;0.00;0.00;
61804;PMS7003;47725;47.912;7.356;2023-05-10T18:09:56;0.00;0.00;
61804;PMS7003;47725;47.912;7.356;2023-05-10T18:13:55;0.00;0.00;
61804;PMS7003;47725;47.912;7.356;2023-05-10T18:17:55;0.00;0.00;
61804;PMS7003;47725;47.912;7.356;2023-05-10T18:21:55;0.00;0.00;
61804;PMS7003;47725;47.912;7.356;2023-05-10T18:25:55;0.00;0.00;
61804;PMS7003;47725;47.912;7.356;2023-05-10T18:29:55;0.00;0.00;
61804;PMS7003;47725;47.912;7.356;2023-05-10T18:33:55;0.00;0.00;
61804;PMS7003;47725;47.912;7.356;2023-05-10T18:37:55;0.00;0.00;
61804;PMS7003;47725;47.912;7.356;2023-05-10T18:41:55;0.00;0.00;
61804;PMS7003;47725;47.912;7.356;2023-05-10T18:45:55;0.00;0.00;
61804;PMS7003;47725;47.912;7.356;2023-05-10T18:49:55;0.00;0.00;
61804;PMS7003;47725;47.912;7.356;2023-05-10T18:53:55;0.00;0.00;
61804;PMS7003;47725;47.912;7.356;2023-05-10T18:57:55;0.00;0.00;
61804;PMS7003;47725;47.912;7.356;2023-05-10T19:01:55;0.00;0.00;
61804;PMS7003;47725;47.912;7.356;2023-05-10T19:05:55;0.00;0.00;
61804;PMS7003;47725;47.912;7.356;2023-05-10T19:09:55;0.00;0.00;
61804;PMS7003;47725;47.912;7.356;2023-05-10T19:13:55;0.00;0.00;
61804;PMS7003;47725;47.912;7.356;2023-05-10T19:17:55;0.00;0.00;
61804;PMS7003;47725;47.912;7.356;2023-05-10T19:21:55;0.00;0.00;
61804;PMS7003;47725;47.912;7.356;2023-05-10T19:25:55;0.00;0.00;
61804;PMS7003;47725;47.912;7.356;2023-05-10T19:29:55;0.00;0.00;
61804;PMS7003;47725;47.912;7.356;2023-05-10T19:33:55;0.00;0.00;
61804;PMS7003;47725;47.912;7.356;2023-05-10T19:37:55;0.00;0.00;
61804;PMS7003;47725;47.912;7.356;2023-05-10T19:41:55;0.00;0.00;
61804;PMS7003;47725;47.912;7.356;2023-05-10T19:45:58;0.00;0.00;
61804;PMS7003;47725;47.912;7.356;2023-05-10T19:49:55;0.00;0.00;
61804;PMS7003;47725;47.912;7.356;2023-05-10T19:53:55;0.00;0.00;
61804;PMS7003;47725;47.912;7.356;2023-05-10T19:57:55;0.00;0.00;
61804;PMS7003;47725;47.912;7.356;2023-05-10T20:01:55;0.00;0.00;
61804;PMS7003;47725;47.912;7.356;2023-05-10T20:05:55;0.00;0.00;
61804;PMS7003;47725;47.912;7.356;2023-05-10T20:09:55;0.00;0.00;
61804;PMS7003;47725;47.912;7.356;2023-05-10T20:13:55;0.00;0.00;
61804;PMS7003;47725;47.912;7.356;2023-05-10T20:17:55;0.00;0.00;
61804;PMS7003;47725;47.912;7.356;2023-05-10T20:21:55;0.95;0.00;
61804;PMS7003;47725;47.912;7.356;2023-05-10T20:25:55;0.95;0.00;
61804;PMS7003;47725;47.912;7.356;2023-05-10T20:29:55;0.95;0.00;
61804;PMS7003;47725;47.912;7.356;2023-05-10T20:33:55;0.00;0.00;
61804;PMS7003;47725;47.912;7.356;2023-05-10T20:37:55;0.00;0.00;
61804;PMS7003;47725;47.912;7.356;2023-05-10T20:41:55;0.00;0.00;
61804;PMS7003;47725;47.912;7.356;2023-05-10T20:45:55;0.00;0.00;
61804;PMS7003;47725;47.912;7.356;2023-05-10T20:49:55;0.00;0.00;
61804;PMS7003;47725;47.912;7.356;2023-05-10T20:53:55;0.00;0.00;
61804;PMS7003;47725;47.912;7.356;2023-05-10T20:57:55;0.00;0.00;
61804;PMS7003;47725;47.912;7.356;2023-05-10T21:01:55;0.00;0.00;
61804;PMS7003;47725;47.912;7.356;2023-05-10T21:05:55;0.00;0.00;
61804;PMS7003;47725;47.912;7.356;2023-05-10T21:09:55;0.00;0.00;
61804;PMS7003;47725;47.912;7.356;2023-05-10T21:13:55;0.00;0.00;
61804;PMS7003;47725;47.912;7.356;2023-05-10T21:17:55;0.00;0.00;
61804;PMS7003;47725;47.912;7.356;2023-05-10T21:21:55;0.00;0.00;
61804;PMS7003;47725;47.912;7.356;2023-05-10T21:25:55;0.00;0.00;
61804;PMS7003;47725;47.912;7.356;2023-05-10T21:29:55;0.00;0.00;
61804;PMS7003;47725;47.912;7.356;2023-05-10T21:33:55;0.00;0.00;
61804;PMS7003;47725;47.912;7.356;2023-05-10T21:37:55;0.00;0.00;
61804;PMS7003;47725;47.912;7.356;2023-05-10T21:41:55;0.00;0.00;
61804;PMS7003;47725;47.912;7.356;2023-05-10T21:45:55;0.00;0.00;
61804;PMS7003;47725;47.912;7.356;2023-05-10T21:49:55;0.00;0.00;
61804;PMS7003;47725;47.912;7.356;2023-05-10T21:53:55;0.00;0.00;
61804;PMS7003;47725;47.912;7.356;2023-05-10T21:57:55;0.00;0.00;
61804;PMS7003;47725;47.912;7.356;2023-05-10T22:01:55;0.00;0.00;
61804;PMS7003;47725;47.912;7.356;2023-05-10T22:05:55;0.00;0.00;
61804;PMS7003;47725;47.912;7.356;2023-05-10T22:09:55;0.00;0.00;
61804;PMS7003;47725;47.912;7.356;2023-05-10T22:13:55;0.00;0.00;
61804;PMS7003;47725;47.912;7.356;2023-05-10T22:17:55;0.00;0.00;
61804;PMS7003;47725;47.912;7.356;2023-05-10T22:21:55;0.00;0.00;
61804;PMS7003;47725;47.912;7.356;2023-05-10T22:25:58;0.00;0.00;
61804;PMS7003;47725;47.912;7.356;2023-05-10T22:29:55;0.00;0.00;
61804;PMS7003;47725;47.912;7.356;2023-05-10T22:33:55;0.00;0.00;
61804;PMS7003;47725;47.912;7.356;2023-05-10T22:37:55;0.00;0.00;
61804;PMS7003;47725;47.912;7.356;2023-05-10T22:41:55;0.00;0.00;
61804;PMS7003;47725;47.912;7.356;2023-05-10T22:45:55;0.00;0.00;
61804;PMS7003;47725;47.912;7.356;2023-05-10T22:49:55;0.00;0.00;
61804;PMS7003;47725;47.912;7.356;2023-05-10T22:53:55;0.00;0.00;
61804;PMS7003;47725;47.912;7.356;2023-05-10T22:57:55;0.00;0.00;
61804;PMS7003;47725;47.912;7.356;2023-05-10T23:01:55;0.90;0.00;
61804;PMS7003;47725;47.912;7.356;2023-05-10T23:05:55;0.90;0.00;
61804;PMS7003;47725;47.912;7.356;2023-05-10T23:09:55;0.90;0.00;
61804;PMS7003;47725;47.912;7.356;2023-05-10T23:13:55;0.00;0.00;
61804;PMS7003;47725;47.912;7.356;2023-05-10T23:17:55;0.00;0.00;
61804;PMS7003;47725;47.912;7.356;2023-05-10T23:21:55;0.00;0.00;
61804;PMS7003;47725;47.912;7.356;2023-05-10T23:25:55;0.00;0.00;
61804;PMS7003;47725;47.912;7.356;2023-05-10T23:29:55;0.00;0.00;
61804;PMS7003;47725;47.912;7.356;2023-05-10T23:33:55;0.00;0.00;
61804;PMS7003;47725;47.912;7.356;2023-05-10T23:37:55;0.00;0.00;
61804;PMS7003;47725;47.912;7.356;2023-05-10T23:41:55;0.00;0.00;
61804;PMS7003;47725;47.912;7.356;2023-05-10T23:45:55;0.00;0.00;
61804;PMS7003;47725;47.912;7.356;2023-05-10T23:49:55;0.00;0.00;
61804;PMS7003;47725;47.912;7.356;2023-05-10T23:53:55;1.77;0.00;
61804;PMS7003;47725;47.912;7.356;2023-05-10T23:57:55;1.77;0.00;
